createdAt,value
2023-03-18T00:01:10.410Z,100.00
2023-03-18T00:03:38.496Z,100.00
2023-03-18T00:06:12.438Z,100.00
2023-03-18T00:08:41.948Z,100.00
2023-03-18T00:11:11.169Z,100.00
2023-03-18T00:13:38.094Z,100.00
2023-03-18T00:16:07.053Z,100.00
2023-03-18T00:18:35.255Z,100.00
2023-03-18T00:21:02.382Z,100.00
2023-03-18T00:23:29.370Z,100.00
2023-03-18T00:25:58.259Z,100.00
2023-03-18T00:28:26.023Z,100.00
2023-03-18T00:30:54.459Z,100.00
2023-03-18T00:33:21.568Z,100.00
2023-03-18T00:35:48.636Z,100.00
2023-03-18T00:38:20.782Z,100.00
2023-03-18T00:41:04.225Z,100.00
2023-03-18T00:43:33.864Z,100.00
2023-03-18T00:46:01.163Z,100.00
2023-03-18T00:48:28.217Z,100.00
2023-03-18T00:50:55.100Z,99.76
2023-03-18T00:53:23.720Z,100.00
2023-03-18T00:55:50.543Z,100.00
2023-03-18T00:58:17.335Z,100.00
2023-03-18T01:00:44.284Z,100.00
2023-03-18T01:03:11.221Z,100.00
2023-03-18T01:05:38.211Z,100.00
2023-03-18T01:08:05.751Z,100.00
2023-03-18T01:10:33.649Z,100.00
2023-03-18T01:13:01.392Z,100.00
2023-03-18T01:15:28.386Z,100.00
2023-03-18T01:17:56.994Z,100.00
2023-03-18T01:20:25.465Z,100.00
2023-03-18T01:22:52.521Z,100.00
2023-03-18T01:25:19.434Z,100.00
2023-03-18T01:27:46.548Z,100.00
2023-03-18T01:30:14.095Z,100.00
2023-03-18T01:32:42.419Z,100.00
2023-03-18T01:35:10.486Z,100.00
2023-03-18T01:37:37.669Z,100.00
2023-03-18T01:40:07.118Z,100.00
2023-03-18T01:42:34.308Z,100.00
2023-03-18T01:45:25.639Z,100.00
2023-03-18T01:47:52.626Z,100.00
2023-03-18T01:50:33.344Z,100.00
2023-03-18T01:53:08.932Z,100.00
2023-03-18T01:55:37.913Z,100.00
2023-03-18T01:58:19.977Z,100.00
2023-03-18T02:00:58.068Z,100.00
2023-03-18T02:03:27.538Z,100.00
2023-03-18T02:05:55.315Z,100.00
2023-03-18T02:08:22.116Z,100.00
2023-03-18T02:10:50.129Z,100.00
2023-03-18T02:13:18.475Z,100.00
2023-03-18T02:15:55.768Z,100.00
2023-03-18T02:18:40.019Z,100.00
2023-03-18T02:21:33.636Z,100.00
2023-03-18T02:24:20.730Z,100.00
2023-03-18T02:27:00.249Z,100.00
2023-03-18T02:29:31.284Z,100.00
2023-03-18T02:32:03.295Z,100.00
2023-03-18T02:34:30.884Z,100.00
2023-03-18T02:36:57.899Z,100.00
2023-03-18T02:39:24.814Z,100.00
2023-03-18T02:41:52.577Z,100.00
2023-03-18T02:44:20.670Z,100.00
2023-03-18T02:46:57.742Z,100.00
2023-03-18T02:49:27.651Z,100.00
2023-03-18T02:51:55.208Z,100.00
2023-03-18T02:54:31.888Z,100.00
2023-03-18T02:56:58.820Z,100.00
2023-03-18T02:59:25.970Z,100.00
2023-03-18T03:01:54.845Z,100.00
2023-03-18T03:04:25.481Z,100.00
2023-03-18T03:06:53.284Z,100.00
2023-03-18T03:09:21.772Z,100.00
2023-03-18T03:11:48.995Z,100.00
2023-03-18T03:14:17.210Z,100.00
2023-03-18T03:16:44.168Z,100.00
2023-03-18T03:19:12.184Z,100.00
2023-03-18T03:21:39.123Z,100.00
2023-03-18T03:24:07.052Z,100.00
2023-03-18T03:26:35.009Z,100.00
2023-03-18T03:29:04.524Z,100.00
2023-03-18T03:31:31.719Z,100.00
2023-03-18T03:33:58.829Z,100.00
2023-03-18T03:36:25.650Z,100.00
2023-03-18T03:38:52.466Z,100.00
2023-03-18T03:41:19.617Z,100.00
2023-03-18T03:43:46.418Z,100.00
2023-03-18T03:46:13.686Z,100.00
2023-03-18T03:48:40.613Z,100.00
2023-03-18T03:51:07.918Z,100.00
2023-03-18T03:53:36.132Z,100.00
2023-03-18T03:56:04.457Z,100.00
2023-03-18T03:58:31.439Z,100.00
2023-03-18T04:00:58.332Z,100.00
2023-03-18T04:03:25.623Z,100.00
2023-03-18T04:05:53.586Z,100.00
2023-03-18T04:08:20.701Z,100.00
2023-03-18T04:10:47.653Z,100.00
2023-03-18T04:13:14.479Z,100.00
2023-03-18T04:15:41.308Z,100.00
2023-03-18T04:18:08.957Z,100.00
2023-03-18T04:20:37.605Z,100.00
2023-03-18T04:23:06.137Z,100.00
2023-03-18T04:25:33.221Z,100.00
2023-03-18T04:28:00.114Z,100.00
2023-03-18T04:30:27.506Z,100.00
2023-03-18T04:32:54.993Z,100.00
2023-03-18T04:35:23.333Z,100.00
2023-03-18T04:37:50.622Z,100.00
2023-03-18T04:40:18.293Z,100.00
2023-03-18T04:42:47.732Z,100.00
2023-03-18T04:45:17.141Z,100.00
2023-03-18T04:47:45.459Z,100.00
2023-03-18T04:50:14.227Z,100.00
2023-03-18T04:52:42.754Z,100.00
2023-03-18T04:55:10.834Z,100.00
2023-03-18T04:57:38.713Z,100.00
2023-03-18T05:00:12.238Z,100.00
2023-03-18T05:02:40.056Z,100.00
2023-03-18T05:05:08.133Z,100.00
2023-03-18T05:07:35.005Z,100.00
2023-03-18T05:10:01.989Z,100.00
2023-03-18T05:12:28.777Z,100.00
2023-03-18T05:14:55.789Z,100.00
2023-03-18T05:17:22.660Z,100.00
2023-03-18T05:19:49.892Z,100.00
2023-03-18T05:22:19.599Z,100.00
2023-03-18T05:24:46.817Z,100.00
2023-03-18T05:27:17.160Z,100.00
2023-03-18T05:29:44.467Z,100.00
2023-03-18T05:32:12.673Z,100.00
2023-03-18T05:34:40.945Z,100.00
2023-03-18T05:37:11.317Z,100.00
2023-03-18T05:39:38.741Z,100.00
2023-03-18T05:42:06.474Z,100.00
2023-03-18T05:44:34.031Z,100.00
2023-03-18T05:47:01.679Z,100.00
2023-03-18T05:49:28.925Z,100.00
2023-03-18T05:51:55.827Z,100.00
2023-03-18T05:54:23.396Z,100.00
2023-03-18T05:56:52.387Z,100.00
2023-03-18T05:59:20.020Z,100.00
2023-03-18T06:01:47.236Z,100.00
2023-03-18T06:04:14.050Z,100.00
2023-03-18T06:06:41.133Z,100.00
2023-03-18T06:09:10.820Z,100.00
2023-03-18T06:11:38.147Z,100.00
2023-03-18T06:14:06.819Z,100.00
2023-03-18T06:16:35.261Z,100.00
2023-03-18T06:19:03.964Z,100.00
2023-03-18T06:21:33.026Z,100.00
2023-03-18T06:24:01.527Z,100.00
2023-03-18T06:26:29.064Z,100.00
2023-03-18T06:28:58.397Z,100.00
2023-03-18T06:31:25.951Z,100.00
2023-03-18T06:33:53.183Z,100.00
2023-03-18T06:36:22.513Z,100.00
2023-03-18T06:38:49.603Z,100.00
2023-03-18T06:41:16.950Z,100.00
2023-03-18T06:43:44.636Z,100.00
2023-03-18T06:46:11.516Z,100.00
2023-03-18T06:48:40.348Z,100.00
2023-03-18T06:51:08.250Z,100.00
2023-03-18T06:53:36.548Z,100.00
2023-03-18T06:56:06.469Z,100.00
2023-03-18T06:58:33.699Z,100.00
2023-03-18T07:01:01.451Z,100.00
2023-03-18T07:03:28.309Z,100.00
2023-03-18T07:05:56.071Z,100.00
2023-03-18T07:08:23.267Z,100.00
2023-03-18T07:10:53.557Z,100.00
2023-03-18T07:13:21.353Z,100.00
2023-03-18T07:15:48.686Z,100.00
2023-03-18T07:18:15.534Z,100.00
2023-03-18T07:20:42.580Z,100.00
2023-03-18T07:23:10.542Z,100.00
2023-03-18T07:25:37.347Z,100.00
2023-03-18T07:28:05.683Z,100.00
2023-03-18T07:30:33.285Z,100.00
2023-03-18T07:33:00.985Z,100.00
2023-03-18T07:35:28.511Z,100.00
2023-03-18T07:37:55.578Z,100.00
2023-03-18T07:40:22.797Z,100.00
2023-03-18T07:42:51.586Z,100.00
2023-03-18T07:45:18.480Z,100.00
2023-03-18T07:47:47.096Z,100.00
2023-03-18T07:50:14.107Z,100.00
2023-03-18T07:52:40.924Z,100.00
2023-03-18T07:55:09.129Z,100.00
2023-03-18T07:57:36.717Z,100.00
2023-03-18T08:00:06.110Z,100.00
2023-03-18T08:02:33.953Z,100.00
2023-03-18T08:05:00.828Z,100.00
2023-03-18T08:07:27.714Z,100.00
2023-03-18T08:09:54.553Z,100.00
2023-03-18T08:12:21.659Z,100.00
2023-03-18T08:14:49.701Z,100.00
2023-03-18T08:17:17.075Z,100.00
2023-03-18T08:19:44.039Z,100.00
2023-03-18T08:22:11.306Z,100.00
2023-03-18T08:24:38.575Z,100.00
2023-03-18T08:27:06.089Z,100.00
2023-03-18T08:29:32.913Z,100.00
2023-03-18T08:31:59.739Z,100.00
2023-03-18T08:34:26.584Z,100.00
2023-03-18T08:36:53.535Z,100.00
2023-03-18T08:39:20.973Z,100.00
2023-03-18T08:41:48.761Z,100.00
2023-03-18T08:44:16.451Z,100.00
2023-03-18T08:46:43.268Z,100.00
2023-03-18T08:49:12.141Z,100.00
2023-03-18T08:51:39.929Z,100.00
2023-03-18T08:54:08.217Z,100.00
2023-03-18T08:56:35.215Z,100.00
2023-03-18T08:59:02.041Z,100.00
2023-03-18T09:01:28.885Z,100.00
2023-03-18T09:03:57.832Z,97.10
2023-03-18T09:06:24.654Z,94.38
2023-03-18T09:08:52.099Z,95.17
2023-03-18T09:11:18.987Z,94.47
2023-03-18T09:13:45.840Z,92.55
2023-03-18T09:16:12.833Z,92.18
2023-03-18T09:18:42.771Z,91.13
2023-03-18T09:21:12.066Z,90.45
2023-03-18T09:23:38.879Z,89.57
2023-03-18T09:26:05.793Z,87.90
2023-03-18T09:28:32.592Z,87.06
2023-03-18T09:30:59.483Z,86.85
2023-03-18T09:33:26.624Z,86.55
2023-03-18T09:35:53.904Z,85.62
2023-03-18T09:38:21.357Z,85.65
2023-03-18T09:41:08.359Z,85.49
2023-03-18T09:43:54.735Z,85.01
2023-03-18T09:46:53.555Z,83.93
2023-03-18T09:49:46.501Z,82.24
2023-03-18T09:52:45.310Z,81.61
2023-03-18T09:55:40.221Z,81.15
2023-03-18T09:58:25.670Z,80.40
2023-03-18T10:01:01.082Z,80.45
2023-03-18T10:03:33.990Z,79.08
2023-03-18T10:06:06.897Z,78.91
2023-03-18T10:09:10.904Z,78.90
2023-03-18T10:11:46.461Z,78.03
2023-03-18T10:14:35.810Z,77.11
2023-03-18T10:17:14.896Z,77.10
2023-03-18T10:19:50.000Z,76.42
2023-03-18T10:22:43.917Z,75.39
2023-03-18T10:25:27.134Z,74.09
2023-03-18T10:28:03.435Z,72.73
2023-03-18T10:30:43.364Z,72.76
2023-03-18T10:33:18.989Z,71.40
2023-03-18T10:35:51.394Z,69.15
2023-03-18T10:38:51.707Z,67.36
2023-03-18T10:41:28.398Z,66.84
2023-03-18T10:43:56.669Z,61.90
2023-03-18T10:46:25.594Z,59.51
2023-03-18T10:48:59.380Z,59.32
2023-03-18T10:52:15.287Z,59.38
2023-03-18T10:54:52.478Z,57.26
2023-03-18T10:57:21.944Z,57.12
2023-03-18T10:59:51.335Z,55.83
2023-03-18T11:02:26.870Z,56.72
2023-03-18T11:05:26.688Z,55.36
2023-03-18T11:08:05.534Z,51.07
2023-03-18T11:10:46.119Z,51.89
2023-03-18T11:13:18.036Z,49.24
2023-03-18T11:15:53.247Z,51.53
2023-03-18T11:18:24.882Z,51.74
2023-03-18T11:21:02.979Z,51.06
2023-03-18T11:23:48.523Z,51.93
2023-03-18T11:26:24.240Z,50.84
2023-03-18T11:28:59.031Z,50.93
2023-03-18T11:31:25.923Z,50.56
2023-03-18T11:34:00.588Z,47.57
2023-03-18T11:36:28.321Z,48.78
2023-03-18T11:39:05.533Z,43.46
2023-03-18T11:41:32.366Z,40.90
2023-03-18T11:44:18.867Z,40.75
2023-03-18T11:47:00.843Z,41.18
2023-03-18T11:49:29.474Z,41.37
2023-03-18T11:52:28.791Z,41.76
2023-03-18T11:55:18.629Z,42.83
2023-03-18T11:57:57.618Z,42.22
2023-03-18T12:00:55.305Z,42.29
2023-03-18T12:03:54.351Z,42.56
2023-03-18T12:06:28.612Z,41.26
2023-03-18T12:09:49.104Z,42.61
2023-03-18T12:13:27.009Z,41.64
2023-03-18T12:16:50.487Z,42.56
2023-03-18T12:19:39.642Z,40.62
2023-03-18T12:22:41.991Z,40.68
2023-03-18T12:25:58.189Z,42.16
2023-03-18T12:29:07.507Z,41.81
2023-03-18T12:31:59.949Z,41.77
2023-03-18T12:34:51.618Z,40.90
2023-03-18T12:37:40.701Z,39.27
2023-03-18T12:40:15.772Z,39.29
2023-03-18T12:42:45.289Z,40.78
2023-03-18T12:45:21.739Z,40.72
2023-03-18T12:47:55.300Z,41.90
2023-03-18T12:51:04.079Z,40.63
2023-03-18T12:53:38.393Z,39.16
2023-03-18T12:56:13.598Z,39.93
2023-03-18T12:59:18.398Z,38.53
2023-03-18T13:01:57.463Z,39.30
2023-03-18T13:04:30.308Z,38.85
2023-03-18T13:07:03.898Z,39.72
2023-03-18T13:09:44.532Z,39.97
2023-03-18T13:12:23.421Z,39.02
2023-03-18T13:15:22.917Z,38.59
2023-03-18T13:17:54.003Z,38.71
2023-03-18T13:20:25.757Z,38.46
2023-03-18T13:23:11.266Z,37.73
2023-03-18T13:25:48.940Z,35.75
2023-03-18T13:29:00.032Z,36.52
2023-03-18T13:31:47.370Z,35.46
2023-03-18T13:34:26.472Z,36.59
2023-03-18T13:37:26.837Z,37.83
2023-03-18T13:40:05.633Z,36.56
2023-03-18T13:42:36.116Z,36.60
2023-03-18T13:45:29.803Z,36.96
2023-03-18T13:48:00.809Z,36.01
2023-03-18T13:50:42.247Z,36.31
2023-03-18T13:53:28.296Z,37.69
2023-03-18T13:55:58.082Z,35.96
2023-03-18T13:58:33.876Z,35.83
2023-03-18T14:01:00.561Z,36.52
2023-03-18T14:03:44.541Z,34.91
2023-03-18T14:06:19.033Z,35.46
2023-03-18T14:08:52.701Z,35.59
2023-03-18T14:11:37.317Z,35.31
2023-03-18T14:14:06.114Z,36.07
2023-03-18T14:16:37.598Z,35.72
2023-03-18T14:19:32.515Z,36.23
2023-03-18T14:22:22.093Z,36.21
2023-03-18T14:25:17.781Z,34.38
2023-03-18T14:28:07.319Z,35.49
2023-03-18T14:30:37.367Z,35.67
2023-03-18T14:33:33.112Z,35.79
2023-03-18T14:36:10.255Z,35.01
2023-03-18T14:38:50.636Z,35.10
2023-03-18T14:41:24.823Z,35.71
2023-03-18T14:44:22.807Z,36.28
2023-03-18T14:46:59.345Z,35.72
2023-03-18T14:49:42.635Z,36.01
2023-03-18T14:52:32.056Z,35.92
2023-03-18T14:55:05.384Z,35.43
2023-03-18T14:57:32.203Z,35.27
2023-03-18T15:00:00.383Z,35.78
2023-03-18T15:02:34.038Z,35.79
2023-03-18T15:05:02.015Z,36.25
2023-03-18T15:07:36.840Z,35.96
2023-03-18T15:10:13.344Z,36.30
2023-03-18T15:12:40.483Z,36.65
2023-03-18T15:15:14.782Z,36.20
2023-03-18T15:17:48.855Z,35.84
2023-03-18T15:20:16.895Z,37.01
2023-03-18T15:22:44.561Z,36.94
2023-03-18T15:25:20.479Z,36.61
2023-03-18T15:27:48.345Z,36.29
2023-03-18T15:30:29.217Z,36.47
2023-03-18T15:33:06.580Z,37.07
2023-03-18T15:35:34.008Z,36.57
2023-03-18T15:38:08.881Z,36.70
2023-03-18T15:40:44.524Z,36.30
2023-03-18T15:43:11.191Z,36.14
2023-03-18T15:45:52.843Z,35.93
2023-03-18T15:48:36.697Z,36.31
2023-03-18T15:51:10.669Z,36.32
2023-03-18T15:53:47.607Z,36.05
2023-03-18T15:56:36.669Z,36.13
2023-03-18T15:59:14.453Z,36.49
2023-03-18T16:01:41.278Z,36.37
2023-03-18T16:04:12.753Z,36.43
2023-03-18T16:06:40.362Z,36.19
2023-03-18T16:09:22.806Z,36.03
2023-03-18T16:12:20.509Z,36.14
2023-03-18T16:14:49.691Z,36.29
2023-03-18T16:17:21.830Z,36.31
2023-03-18T16:19:54.077Z,38.14
2023-03-18T16:22:22.073Z,39.90
2023-03-18T16:24:49.322Z,40.92
2023-03-18T16:27:45.374Z,43.40
2023-03-18T16:30:33.932Z,44.94
2023-03-18T16:33:00.936Z,45.35
2023-03-18T16:35:34.131Z,46.23
2023-03-18T16:38:01.656Z,47.12
2023-03-18T16:40:31.366Z,47.50
2023-03-18T16:42:58.472Z,47.84
2023-03-18T16:45:30.503Z,48.48
2023-03-18T16:48:02.093Z,49.05
2023-03-18T16:50:33.973Z,48.91
2023-03-18T16:53:00.968Z,49.15
2023-03-18T16:55:27.957Z,49.88
2023-03-18T16:57:59.016Z,50.07
2023-03-18T17:00:32.799Z,51.04
2023-03-18T17:03:01.341Z,51.04
2023-03-18T17:05:29.057Z,52.16
2023-03-18T17:07:55.892Z,51.96
2023-03-18T17:10:26.173Z,52.55
2023-03-18T17:13:00.007Z,53.07
2023-03-18T17:15:31.808Z,53.25
2023-03-18T17:17:59.710Z,53.59
2023-03-18T17:20:32.473Z,54.15
2023-03-18T17:23:00.976Z,54.38
2023-03-18T17:25:30.415Z,54.19
2023-03-18T17:28:06.021Z,54.28
2023-03-18T17:30:36.296Z,54.53
2023-03-18T17:33:04.514Z,55.44
2023-03-18T17:35:31.727Z,55.60
2023-03-18T17:37:59.185Z,55.24
2023-03-18T17:40:29.811Z,56.04
2023-03-18T17:42:56.768Z,55.91
2023-03-18T17:45:33.424Z,55.65
2023-03-18T17:48:21.373Z,56.20
2023-03-18T17:50:54.190Z,55.93
2023-03-18T17:53:37.392Z,56.35
2023-03-18T17:56:07.754Z,56.77
2023-03-18T17:58:35.227Z,57.36
2023-03-18T18:01:08.889Z,56.83
2023-03-18T18:03:38.709Z,56.93
2023-03-18T18:06:06.771Z,57.56
2023-03-18T18:08:34.228Z,57.88
2023-03-18T18:11:24.287Z,58.72
2023-03-18T18:13:54.728Z,59.08
2023-03-18T18:16:21.849Z,59.32
2023-03-18T18:18:50.079Z,59.77
2023-03-18T18:21:21.168Z,59.76
2023-03-18T18:23:48.646Z,60.02
2023-03-18T18:26:21.993Z,60.00
2023-03-18T18:28:52.019Z,60.55
2023-03-18T18:31:21.973Z,60.54
2023-03-18T18:33:50.399Z,60.80
2023-03-18T18:36:18.044Z,61.81
2023-03-18T18:38:45.473Z,62.00
2023-03-18T18:41:12.622Z,62.84
2023-03-18T18:43:39.481Z,63.03
2023-03-18T18:46:14.815Z,64.31
2023-03-18T18:48:43.945Z,65.54
2023-03-18T18:51:21.645Z,65.95
2023-03-18T18:53:52.317Z,66.23
2023-03-18T18:56:32.052Z,67.18
2023-03-18T18:58:59.232Z,67.59
2023-03-18T19:01:26.534Z,67.86
2023-03-18T19:03:54.060Z,68.46
2023-03-18T19:06:30.897Z,68.67
2023-03-18T19:09:03.812Z,68.48
2023-03-18T19:11:30.668Z,69.40
2023-03-18T19:14:27.290Z,69.69
2023-03-18T19:16:58.361Z,69.95
2023-03-18T19:19:33.024Z,69.39
2023-03-18T19:22:00.333Z,69.21
2023-03-18T19:24:30.494Z,70.74
2023-03-18T19:27:01.326Z,71.22
2023-03-18T19:29:28.630Z,72.18
2023-03-18T19:31:55.684Z,71.84
2023-03-18T19:34:23.728Z,71.04
2023-03-18T19:36:54.408Z,71.33
2023-03-18T19:39:22.600Z,72.78
2023-03-18T19:41:49.769Z,72.27
2023-03-18T19:44:23.277Z,72.68
2023-03-18T19:46:55.447Z,72.49
2023-03-18T19:49:33.588Z,72.96
2023-03-18T19:52:06.911Z,73.82
2023-03-18T19:54:36.582Z,73.41
2023-03-18T19:57:15.229Z,75.16
2023-03-18T19:59:43.314Z,75.28
2023-03-18T20:02:27.574Z,75.64
2023-03-18T20:05:00.776Z,76.02
2023-03-18T20:07:30.732Z,76.54
2023-03-18T20:09:57.590Z,77.35
2023-03-18T20:12:37.308Z,78.35
2023-03-18T20:15:15.023Z,77.48
2023-03-18T20:17:45.461Z,76.84
2023-03-18T20:20:21.057Z,76.54
2023-03-18T20:23:01.848Z,76.75
2023-03-18T20:25:35.952Z,76.93
2023-03-18T20:28:10.118Z,77.34
2023-03-18T20:30:39.501Z,77.41
2023-03-18T20:33:07.250Z,77.71
2023-03-18T20:35:38.100Z,78.65
2023-03-18T20:38:38.751Z,78.52
2023-03-18T20:41:14.901Z,78.89
2023-03-18T20:43:41.857Z,79.51
2023-03-18T20:46:14.316Z,80.12
2023-03-18T20:48:42.223Z,80.36
2023-03-18T20:51:31.130Z,80.46
2023-03-18T20:53:58.085Z,80.64
2023-03-18T20:56:26.204Z,81.10
2023-03-18T20:58:53.040Z,81.24
2023-03-18T21:01:19.956Z,81.48
2023-03-18T21:03:46.831Z,81.18
2023-03-18T21:06:16.431Z,81.44
2023-03-18T21:08:43.587Z,81.83
2023-03-18T21:11:21.899Z,81.33
2023-03-18T21:13:49.110Z,82.29
2023-03-18T21:16:16.981Z,82.87
2023-03-18T21:18:47.598Z,82.57
2023-03-18T21:21:24.924Z,83.07
2023-03-18T21:23:53.842Z,83.01
2023-03-18T21:26:22.517Z,83.27
2023-03-18T21:28:50.537Z,83.41
2023-03-18T21:31:31.308Z,84.00
2023-03-18T21:33:58.205Z,83.74
2023-03-18T21:36:25.997Z,83.37
2023-03-18T21:38:52.848Z,83.49
2023-03-18T21:41:28.060Z,83.63
2023-03-18T21:43:55.225Z,83.71
2023-03-18T21:46:26.890Z,83.48
2023-03-18T21:48:54.176Z,83.77
2023-03-18T21:51:40.315Z,84.02
2023-03-18T21:54:19.604Z,84.31
2023-03-18T21:56:46.478Z,84.63
2023-03-18T21:59:13.315Z,85.07
2023-03-18T22:01:40.212Z,85.86
2023-03-18T22:04:07.450Z,85.88
2023-03-18T22:06:34.493Z,85.59
2023-03-18T22:09:01.562Z,86.12
2023-03-18T22:11:28.453Z,86.38
2023-03-18T22:13:55.270Z,86.86
2023-03-18T22:16:22.548Z,87.19
2023-03-18T22:18:51.182Z,87.21
2023-03-18T22:21:26.033Z,86.75
2023-03-18T22:23:53.608Z,86.88
2023-03-18T22:26:21.827Z,87.11
2023-03-18T22:28:50.520Z,87.53
2023-03-18T22:31:23.982Z,87.75
2023-03-18T22:33:51.460Z,87.28
2023-03-18T22:36:21.605Z,87.75
2023-03-18T22:38:49.298Z,87.60
2023-03-18T22:41:24.378Z,88.19
2023-03-18T22:43:51.539Z,88.72
2023-03-18T22:46:18.521Z,89.24
2023-03-18T22:48:45.554Z,89.46
2023-03-18T22:51:29.842Z,89.48
2023-03-18T22:53:56.800Z,89.58
2023-03-18T22:56:23.772Z,89.87
2023-03-18T22:58:51.318Z,89.86
2023-03-18T23:01:21.453Z,90.75
2023-03-18T23:03:48.899Z,91.61
2023-03-18T23:06:19.873Z,91.03
2023-03-18T23:08:46.891Z,91.05
2023-03-18T23:11:14.528Z,91.31
2023-03-18T23:13:44.363Z,91.76
2023-03-18T23:16:17.987Z,92.72
2023-03-18T23:18:45.028Z,93.05
2023-03-18T23:21:21.692Z,92.30
2023-03-18T23:23:49.202Z,91.76
2023-03-18T23:26:16.835Z,92.38
2023-03-18T23:28:45.099Z,92.01
2023-03-18T23:31:14.301Z,92.35
2023-03-18T23:33:41.308Z,92.37
2023-03-18T23:36:08.779Z,92.45
2023-03-18T23:38:37.557Z,93.46
2023-03-18T23:41:04.441Z,93.57
2023-03-18T23:43:31.490Z,93.63
2023-03-18T23:45:58.410Z,93.79
2023-03-18T23:48:25.617Z,94.38
2023-03-18T23:50:52.586Z,94.14
2023-03-18T23:53:19.395Z,93.90
2023-03-18T23:55:49.158Z,94.33
2023-03-18T23:58:16.576Z,94.36
